Time;durP1;ratioP1;P1;durP2;ratioP2;P2;SDS_P1;SDS_P2;PMS_P1;PMS_P2;Temp;Humidity;BMP_temperature;BMP_pressure;BME280_temperature;BME280_humidity;BME280_pressure;Samples;Min_cycle;Max_cycle;Signal;HPM_P1;HPM_P2
2022/05/24 00:02:19;;;;;;;7.50;5.88;;;;;;;;;;5053348;28;20114;-33
2022/05/24 00:04:46;;;;;;;7.65;5.55;;;;;;;;;;5046416;28;20084;-30
2022/05/24 00:07:12;;;;;;;6.22;5.57;;;;;;;;;;5034062;28;20044;-30
2022/05/24 00:09:38;;;;;;;7.45;5.50;;;;;;;;;;5033335;28;20045;-31
2022/05/24 00:12:05;;;;;;;8.13;5.30;;;;;;;;;;5034129;28;20049;-30
2022/05/24 00:17:15;;;;;;;5.57;5.07;;;;;;;;;;5034190;28;20132;-30
2022/05/24 00:19:42;;;;;;;8.95;5.70;;;;;;;;;;5016049;28;20038;-30
2022/05/24 00:22:08;;;;;;;6.50;5.38;;;;;;;;;;5034073;28;20502;-30
2022/05/24 00:24:34;;;;;;;5.80;5.15;;;;;;;;;;5034014;28;20041;-30
2022/05/24 00:27:00;;;;;;;7.53;6.78;;;;;;;;;;5033976;28;20038;-31
2022/05/24 00:29:26;;;;;;;12.32;7.07;;;;;;;;;;5015598;28;20136;-30
2022/05/24 00:31:53;;;;;;;10.60;9.20;;;;;;;;;;5033724;28;20077;-30
2022/05/24 00:34:19;;;;;;;13.60;11.05;;;;;;;;;;5033723;28;20124;-29
2022/05/24 00:36:45;;;;;;;15.68;12.70;;;;;;;;;;5033996;28;20037;-30
2022/05/24 00:39:11;;;;;;;15.10;13.02;;;;;;;;;;5033522;28;20049;-31
2022/05/24 00:41:40;;;;;;;15.23;13.63;;;;;;;;;;5015603;28;20483;-29
2022/05/24 00:44:21;;;;;;;15.38;13.35;;;;;;;;;;5033076;28;20037;-30
2022/05/24 00:46:51;;;;;;;16.55;13.48;;;;;;;;;;5033678;28;20041;-30
2022/05/24 00:49:32;;;;;;;15.57;13.27;;;;;;;;;;5033247;28;20045;-29
2022/05/24 00:52:08;;;;;;;14.90;13.40;;;;;;;;;;5033350;28;20547;-30
2022/05/24 00:54:34;;;;;;;14.38;12.98;;;;;;;;;;5033285;28;20041;-30
2022/05/24 00:57:03;;;;;;;15.77;13.18;;;;;;;;;;5033352;28;20483;-30
2022/05/24 00:59:38;;;;;;;16.65;13.52;;;;;;;;;;5032937;28;20272;-30
2022/05/24 01:02:04;;;;;;;14.50;12.55;;;;;;;;;;5033157;28;20073;-30
2022/05/24 01:04:31;;;;;;;13.98;12.38;;;;;;;;;;5033222;28;20042;-29
2022/05/24 01:06:57;;;;;;;13.45;11.48;;;;;;;;;;5032916;28;20037;-30
2022/05/24 01:09:42;;;;;;;15.20;12.60;;;;;;;;;;5032589;28;20048;-30
2022/05/24 01:12:13;;;;;;;17.23;12.25;;;;;;;;;;5015274;28;20033;-30
2022/05/24 01:14:39;;;;;;;12.82;11.27;;;;;;;;;;5032668;28;20069;-30
2022/05/24 01:17:06;;;;;;;12.48;11.18;;;;;;;;;;5032914;28;20515;-30
2022/05/24 01:19:40;;;;;;;14.23;12.00;;;;;;;;;;5033066;28;20491;-29
2022/05/24 01:22:26;;;;;;;12.80;11.23;;;;;;;;;;5032423;28;20068;-29
2022/05/24 01:24:56;;;;;;;13.20;10.90;;;;;;;;;;5051287;28;20044;-32
2022/05/24 01:27:22;;;;;;;14.18;12.10;;;;;;;;;;5052046;28;20058;-32
2022/05/24 01:29:48;;;;;;;14.48;10.25;;;;;;;;;;5052112;28;20037;-30
2022/05/24 01:37:44;;;;;;;14.48;11.10;;;;;;;;;;5052395;28;20041;-28
2022/05/24 01:40:10;;;;;;;13.25;11.02;;;;;;;;;;5052527;28;20406;-29
2022/05/24 01:42:36;;;;;;;13.52;10.20;;;;;;;;;;5052026;28;20048;-29
2022/05/24 01:45:11;;;;;;;12.68;9.82;;;;;;;;;;5052199;28;20487;-29
2022/05/24 01:47:39;;;;;;;12.07;10.77;;;;;;;;;;5052286;28;20394;-29
2022/05/24 01:50:08;;;;;;;12.10;10.60;;;;;;;;;;5034464;28;20453;-29
2022/05/24 01:52:37;;;;;;;13.45;11.50;;;;;;;;;;5052338;28;20540;-29
2022/05/24 01:55:08;;;;;;;13.52;11.02;;;;;;;;;;5052361;28;20029;-30
2022/05/24 01:57:37;;;;;;;13.82;11.32;;;;;;;;;;5052079;28;20116;-30
2022/05/24 02:00:06;;;;;;;13.30;11.90;;;;;;;;;;5051891;28;20491;-30
2022/05/24 02:02:32;;;;;;;13.88;12.43;;;;;;;;;;5034067;28;20123;-29
2022/05/24 02:04:58;;;;;;;16.35;13.52;;;;;;;;;;5051758;28;20411;-29
2022/05/24 02:07:25;;;;;;;17.10;13.63;;;;;;;;;;5051832;28;20045;-29
2022/05/24 02:09:56;;;;;;;19.75;14.82;;;;;;;;;;5051758;28;20041;-32
2022/05/24 02:12:37;;;;;;;22.02;16.05;;;;;;;;;;5051505;28;20033;-30
2022/05/24 02:15:07;;;;;;;23.48;16.95;;;;;;;;;;5051773;28;20079;-31
2022/05/24 02:17:39;;;;;;;18.73;16.70;;;;;;;;;;5034274;28;20127;-28
2022/05/24 02:20:05;;;;;;;21.60;18.27;;;;;;;;;;5052175;28;20041;-28
2022/05/24 02:22:31;;;;;;;25.98;19.08;;;;;;;;;;5053823;28;20045;-29
2022/05/24 02:25:00;;;;;;;25.17;19.65;;;;;;;;;;5056056;28;20485;-30
2022/05/24 02:27:26;;;;;;;22.98;19.70;;;;;;;;;;5056195;28;20040;-29
2022/05/24 02:29:52;;;;;;;28.38;21.50;;;;;;;;;;5056113;28;20037;-28
2022/05/24 02:32:19;;;;;;;25.05;20.52;;;;;;;;;;5055763;28;20033;-29
2022/05/24 02:34:45;;;;;;;27.13;22.20;;;;;;;;;;5038015;28;20560;-30
2022/05/24 02:37:11;;;;;;;25.90;20.60;;;;;;;;;;5055686;28;20044;-30
2022/05/24 02:42:22;;;;;;;30.58;21.77;;;;;;;;;;5055842;28;20268;-30
2022/05/24 02:44:49;;;;;;;28.42;22.85;;;;;;;;;;5037773;28;20420;-29
2022/05/24 02:47:15;;;;;;;29.05;23.65;;;;;;;;;;5055282;28;20064;-29
2022/05/24 02:49:41;;;;;;;30.15;23.50;;;;;;;;;;5055179;28;20033;-31
2022/05/24 02:52:07;;;;;;;27.50;22.40;;;;;;;;;;5055308;28;20045;-31
2022/05/24 02:54:33;;;;;;;28.45;22.30;;;;;;;;;;5055509;28;20548;-31
2022/05/24 02:57:01;;;;;;;29.15;23.48;;;;;;;;;;5055054;28;20406;-32
2022/05/24 02:59:27;;;;;;;27.30;22.90;;;;;;;;;;5054353;28;20451;-31
2022/05/24 03:01:53;;;;;;;31.08;25.20;;;;;;;;;;5054793;28;20387;-32
2022/05/24 03:04:20;;;;;;;30.35;25.17;;;;;;;;;;5055009;28;20037;-32
2022/05/24 03:09:34;;;;;;;28.13;23.92;;;;;;;;;;5054128;28;20049;-32
2022/05/24 03:14:44;;;;;;;32.03;24.17;;;;;;;;;;5054598;28;20048;-32
2022/05/24 03:17:10;;;;;;;32.30;25.08;;;;;;;;;;5036770;28;20072;-32
2022/05/24 03:19:37;;;;;;;29.17;24.05;;;;;;;;;;5054330;28;20052;-32
2022/05/24 03:22:03;;;;;;;32.90;26.60;;;;;;;;;;5054779;28;20045;-32
2022/05/24 03:24:29;;;;;;;32.92;25.10;;;;;;;;;;5054740;28;20086;-32
2022/05/24 03:26:55;;;;;;;31.80;26.33;;;;;;;;;;5036910;28;20483;-32
2022/05/24 03:29:21;;;;;;;31.35;25.95;;;;;;;;;;5054045;28;20053;-32
2022/05/24 03:31:48;;;;;;;31.05;26.70;;;;;;;;;;5019964;28;20167;-32
2022/05/24 03:34:14;;;;;;;30.20;25.27;;;;;;;;;;5053895;28;20041;-32
2022/05/24 03:36:40;;;;;;;30.65;24.95;;;;;;;;;;5054093;28;20041;-32
2022/05/24 03:39:07;;;;;;;31.77;25.00;;;;;;;;;;5053923;28;20045;-34
2022/05/24 03:41:33;;;;;;;31.52;25.88;;;;;;;;;;5054112;28;20045;-33
2022/05/24 03:44:00;;;;;;;32.15;26.90;;;;;;;;;;5053950;28;20495;-33
2022/05/24 03:46:26;;;;;;;32.95;25.80;;;;;;;;;;5053838;28;20055;-31
2022/05/24 03:48:52;;;;;;;31.80;25.42;;;;;;;;;;5053256;28;20453;-33
2022/05/24 03:51:18;;;;;;;30.40;24.40;;;;;;;;;;5053357;28;20037;-32
2022/05/24 03:53:44;;;;;;;31.17;25.73;;;;;;;;;;5053739;28;20044;-31
2022/05/24 03:56:11;;;;;;;32.00;25.08;;;;;;;;;;5053141;28;20037;-33
2022/05/24 03:58:37;;;;;;;29.77;23.35;;;;;;;;;;5053188;28;20056;-33
2022/05/24 04:01:03;;;;;;;28.50;23.95;;;;;;;;;;5053847;28;20037;-32
2022/05/24 04:03:29;;;;;;;29.10;23.20;;;;;;;;;;5053717;28;20494;-31
2022/05/24 04:05:55;;;;;;;28.27;22.77;;;;;;;;;;5053595;28;20048;-31
2022/05/24 04:08:26;;;;;;;28.25;23.27;;;;;;;;;;5053288;28;20124;-32
2022/05/24 04:10:59;;;;;;;27.17;22.98;;;;;;;;;;5052669;28;20563;-32
2022/05/24 04:13:25;;;;;;;27.57;23.57;;;;;;;;;;5053344;28;20037;-32
2022/05/24 04:15:51;;;;;;;27.38;22.27;;;;;;;;;;5053390;28;20041;-32
2022/05/24 04:18:17;;;;;;;31.40;24.25;;;;;;;;;;5035461;28;20174;-32
2022/05/24 04:20:43;;;;;;;27.83;23.85;;;;;;;;;;5052919;28;20045;-33
2022/05/24 04:23:13;;;;;;;28.52;24.23;;;;;;;;;;5035229;28;20037;-31
2022/05/24 04:25:39;;;;;;;29.67;23.73;;;;;;;;;;5053025;28;20441;-32
2022/05/24 04:28:05;;;;;;;32.47;23.45;;;;;;;;;;5052034;28;20044;-31
2022/05/24 04:30:32;;;;;;;29.30;22.90;;;;;;;;;;5053319;28;20044;-31
2022/05/24 04:32:58;;;;;;;30.10;24.55;;;;;;;;;;5053235;28;20037;-32
2022/05/24 04:35:24;;;;;;;32.38;25.10;;;;;;;;;;5043639;28;20068;-33
2022/05/24 04:37:50;;;;;;;30.10;24.45;;;;;;;;;;5035054;28;20033;-28
2022/05/24 04:40:17;;;;;;;29.10;23.65;;;;;;;;;;5033296;28;20052;-29
2022/05/24 04:42:43;;;;;;;30.00;23.50;;;;;;;;;;5033405;28;20041;-29
2022/05/24 04:45:11;;;;;;;28.40;23.80;;;;;;;;;;5032619;28;20049;-28
2022/05/24 04:47:37;;;;;;;29.10;23.30;;;;;;;;;;5031407;28;20518;-29
2022/05/24 04:50:06;;;;;;;29.02;23.40;;;;;;;;;;5033125;28;20088;-29
2022/05/24 04:52:34;;;;;;;34.53;25.40;;;;;;;;;;5031282;28;20041;-29
2022/05/24 04:55:00;;;;;;;28.70;24.00;;;;;;;;;;5032885;28;20387;-28
2022/05/24 04:57:26;;;;;;;33.33;24.55;;;;;;;;;;5032648;28;20499;-29
2022/05/24 04:59:53;;;;;;;31.10;22.27;;;;;;;;;;5032596;28;20404;-29
2022/05/24 05:02:19;;;;;;;29.42;22.85;;;;;;;;;;5037832;28;20049;-29
2022/05/24 05:04:46;;;;;;;28.77;22.05;;;;;;;;;;5032804;28;20042;-30
2022/05/24 05:07:13;;;;;;;25.73;20.85;;;;;;;;;;5014544;28;20064;-29
2022/05/24 05:09:39;;;;;;;26.73;19.45;;;;;;;;;;5032487;28;20072;-29
2022/05/24 05:12:06;;;;;;;21.05;17.58;;;;;;;;;;5032345;28;20079;-29
2022/05/24 05:14:33;;;;;;;24.88;17.63;;;;;;;;;;5032195;28;20053;-30
2022/05/24 05:16:59;;;;;;;21.80;16.95;;;;;;;;;;5032407;28;20379;-30
2022/05/24 05:19:26;;;;;;;23.98;18.27;;;;;;;;;;5032174;28;20124;-29
2022/05/24 05:21:52;;;;;;;22.38;17.25;;;;;;;;;;5032211;28;20536;-29
2022/05/24 05:24:18;;;;;;;25.88;17.92;;;;;;;;;;5032332;28;20033;-29
2022/05/24 05:26:45;;;;;;;22.48;17.83;;;;;;;;;;5032638;28;20453;-29
2022/05/24 05:29:11;;;;;;;23.25;17.13;;;;;;;;;;5032632;28;20124;-28
2022/05/24 05:31:37;;;;;;;21.70;16.27;;;;;;;;;;5032473;28;20041;-30
2022/05/24 05:34:04;;;;;;;22.92;17.60;;;;;;;;;;5032332;28;20068;-28
2022/05/24 05:36:30;;;;;;;24.85;17.52;;;;;;;;;;5032097;28;20107;-28
2022/05/24 05:38:56;;;;;;;26.90;17.85;;;;;;;;;;5031957;28;20172;-28
2022/05/24 05:41:30;;;;;;;22.92;18.30;;;;;;;;;;5031833;28;20399;-29
2022/05/24 05:43:57;;;;;;;23.75;17.42;;;;;;;;;;5032309;28;20052;-28
2022/05/24 05:46:23;;;;;;;24.15;17.23;;;;;;;;;;5032463;28;20045;-30
2022/05/24 05:48:49;;;;;;;25.20;18.98;;;;;;;;;;5032222;28;20045;-28
2022/05/24 05:51:16;;;;;;;24.45;18.52;;;;;;;;;;5030307;28;20045;-28
2022/05/24 05:53:43;;;;;;;23.52;18.33;;;;;;;;;;5031214;28;20029;-28
2022/05/24 05:56:13;;;;;;;24.25;18.38;;;;;;;;;;5031596;28;20038;-28
2022/05/24 05:58:39;;;;;;;21.70;19.20;;;;;;;;;;5031392;28;20470;-28
2022/05/24 06:01:05;;;;;;;26.70;19.30;;;;;;;;;;5030958;28;20270;-28
2022/05/24 06:03:31;;;;;;;26.67;19.70;;;;;;;;;;5031259;28;20037;-28
2022/05/24 06:06:00;;;;;;;24.02;19.77;;;;;;;;;;5031883;28;20117;-29
2022/05/24 06:08:27;;;;;;;26.80;19.27;;;;;;;;;;5031418;28;20045;-27
2022/05/24 06:10:53;;;;;;;28.15;19.08;;;;;;;;;;5032246;28;20037;-28
2022/05/24 06:13:19;;;;;;;25.45;20.10;;;;;;;;;;5037737;28;20542;-31
2022/05/24 06:15:48;;;;;;;25.02;18.55;;;;;;;;;;5052249;28;20044;-29
2022/05/24 06:18:14;;;;;;;24.00;19.10;;;;;;;;;;5033322;28;20136;-31
2022/05/24 06:20:40;;;;;;;24.17;18.60;;;;;;;;;;5051877;28;20122;-32
2022/05/24 06:23:06;;;;;;;24.40;18.80;;;;;;;;;;5050985;28;20045;-32
2022/05/24 06:25:32;;;;;;;26.88;19.05;;;;;;;;;;5032902;28;20128;-33
2022/05/24 06:27:59;;;;;;;23.40;18.73;;;;;;;;;;5051328;28;20126;-32
2022/05/24 06:30:26;;;;;;;23.73;17.30;;;;;;;;;;5051464;28;20124;-32
2022/05/24 06:32:52;;;;;;;22.50;17.67;;;;;;;;;;5051510;28;20073;-33
2022/05/24 06:35:22;;;;;;;19.35;17.20;;;;;;;;;;5051782;28;20033;-30
2022/05/24 06:37:53;;;;;;;23.67;17.75;;;;;;;;;;5050831;28;20052;-30
2022/05/24 06:40:19;;;;;;;21.40;17.70;;;;;;;;;;5052169;28;20406;-32
2022/05/24 06:42:45;;;;;;;20.08;17.55;;;;;;;;;;5033683;28;20037;-30
2022/05/24 06:45:12;;;;;;;21.52;18.30;;;;;;;;;;5051603;28;20186;-32
2022/05/24 06:47:40;;;;;;;22.40;17.63;;;;;;;;;;5051325;28;20045;-30
2022/05/24 06:50:06;;;;;;;20.65;16.40;;;;;;;;;;5051767;28;20511;-30
2022/05/24 06:52:33;;;;;;;21.10;15.65;;;;;;;;;;5051125;28;20065;-31
2022/05/24 06:54:59;;;;;;;20.08;16.70;;;;;;;;;;5051716;28;20457;-32
2022/05/24 06:57:25;;;;;;;21.08;16.42;;;;;;;;;;5051191;28;20045;-30
2022/05/24 07:02:36;;;;;;;18.75;15.98;;;;;;;;;;5039203;28;20550;-32
2022/05/24 07:05:12;;;;;;;21.55;15.77;;;;;;;;;;5040920;28;20033;-31
2022/05/24 07:07:38;;;;;;;22.63;15.80;;;;;;;;;;5043932;28;20264;-32
2022/05/24 07:10:06;;;;;;;19.23;15.15;;;;;;;;;;5045687;28;20121;-33
2022/05/24 07:12:32;;;;;;;18.70;15.20;;;;;;;;;;5046388;28;20568;-31
2022/05/24 07:14:58;;;;;;;18.05;14.32;;;;;;;;;;5040548;28;20414;-32
2022/05/24 07:17:24;;;;;;;19.20;15.40;;;;;;;;;;5045999;28;20041;-31
2022/05/24 07:19:51;;;;;;;21.08;14.90;;;;;;;;;;5040687;28;20530;-31
2022/05/24 07:22:17;;;;;;;21.35;14.75;;;;;;;;;;5044716;28;21368;-31
2022/05/24 07:24:45;;;;;;;18.02;15.48;;;;;;;;;;5044920;28;20033;-33
2022/05/24 07:27:12;;;;;;;15.90;14.23;;;;;;;;;;5038479;28;20507;-29
2022/05/24 07:29:38;;;;;;;19.15;15.18;;;;;;;;;;5042873;28;20092;-29
2022/05/24 07:32:05;;;;;;;20.80;14.38;;;;;;;;;;5022945;28;20049;-30
2022/05/24 07:34:31;;;;;;;19.67;14.98;;;;;;;;;;5042623;28;20036;-35
2022/05/24 07:36:57;;;;;;;16.98;14.77;;;;;;;;;;5022330;28;20087;-32
2022/05/24 07:39:24;;;;;;;19.27;14.32;;;;;;;;;;5044554;28;20091;-33
2022/05/24 07:47:20;;;;;;;19.20;13.65;;;;;;;;;;5043181;28;20037;-31
2022/05/24 07:49:46;;;;;;;16.40;14.07;;;;;;;;;;5037896;28;20037;-32
2022/05/24 07:52:12;;;;;;;16.73;13.30;;;;;;;;;;5047232;28;20038;-31
2022/05/24 07:54:38;;;;;;;17.75;13.77;;;;;;;;;;5045635;28;20112;-31
2022/05/24 07:57:08;;;;;;;19.77;13.38;;;;;;;;;;5038920;28;20507;-31
2022/05/24 07:59:35;;;;;;;17.10;12.75;;;;;;;;;;5033029;28;20042;-31
2022/05/24 08:02:01;;;;;;;14.63;12.55;;;;;;;;;;5047395;28;20037;-32
2022/05/24 08:04:27;;;;;;;16.55;12.48;;;;;;;;;;5046247;28;20045;-31
2022/05/24 08:06:55;;;;;;;16.63;12.75;;;;;;;;;;5033725;28;20530;-33
2022/05/24 08:09:21;;;;;;;15.60;12.85;;;;;;;;;;5033561;28;20045;-32
2022/05/24 08:11:48;;;;;;;15.55;12.25;;;;;;;;;;5046812;28;20043;-34
2022/05/24 08:14:14;;;;;;;13.82;12.43;;;;;;;;;;5053663;28;20037;-30
2022/05/24 08:16:40;;;;;;;14.20;12.20;;;;;;;;;;5054377;28;20036;-29
2022/05/24 08:19:08;;;;;;;16.60;12.35;;;;;;;;;;5052849;28;20411;-31
2022/05/24 08:21:35;;;;;;;18.25;12.00;;;;;;;;;;5053677;28;20402;-30
2022/05/24 08:24:01;;;;;;;13.70;10.55;;;;;;;;;;5053295;28;20073;-29
2022/05/24 08:26:27;;;;;;;14.30;11.00;;;;;;;;;;5049847;28;20244;-29
2022/05/24 08:28:53;;;;;;;14.40;11.70;;;;;;;;;;5048755;28;20186;-30
2022/05/24 08:31:20;;;;;;;15.63;10.30;;;;;;;;;;5052933;28;20033;-29
2022/05/24 08:33:47;;;;;;;12.07;10.85;;;;;;;;;;5053079;28;20033;-30
2022/05/24 08:36:14;;;;;;;12.88;10.77;;;;;;;;;;5053439;28;20102;-30
2022/05/24 08:38:41;;;;;;;12.55;10.88;;;;;;;;;;5053014;28;20494;-29
2022/05/24 08:41:10;;;;;;;12.23;10.90;;;;;;;;;;5036538;28;20052;-29
2022/05/24 08:43:36;;;;;;;12.90;11.00;;;;;;;;;;5033295;28;20521;-29
2022/05/24 08:49:05;;;;;;;15.98;10.63;;;;;;;;;;5032858;28;20050;-30
2022/05/24 08:51:42;;;;;;;10.98;9.98;;;;;;;;;;5032926;28;20037;-29
2022/05/24 08:54:10;;;;;;;10.15;8.30;;;;;;;;;;5051859;28;20033;-29
2022/05/24 08:56:45;;;;;;;8.55;7.18;;;;;;;;;;5052713;28;20512;-30
2022/05/24 08:59:24;;;;;;;7.95;6.97;;;;;;;;;;5052339;28;20127;-30
2022/05/24 09:01:50;;;;;;;7.85;7.15;;;;;;;;;;5052477;28;20047;-30
2022/05/24 09:04:17;;;;;;;7.82;6.78;;;;;;;;;;5052548;28;20091;-30
2022/05/24 09:06:47;;;;;;;11.18;7.15;;;;;;;;;;5052616;28;20083;-30
2022/05/24 09:09:16;;;;;;;7.45;6.75;;;;;;;;;;5052556;28;20128;-29
2022/05/24 09:12:06;;;;;;;7.68;6.13;;;;;;;;;;5046414;28;20116;-30
2022/05/24 09:14:51;;;;;;;9.40;6.65;;;;;;;;;;5032486;28;20051;-30
2022/05/24 09:17:20;;;;;;;8.55;6.30;;;;;;;;;;5032275;28;20076;-30
2022/05/24 09:19:46;;;;;;;9.70;6.93;;;;;;;;;;5014751;28;20060;-30
2022/05/24 09:22:12;;;;;;;6.72;6.00;;;;;;;;;;5032427;28;20259;-30
2022/05/24 09:24:41;;;;;;;6.82;5.55;;;;;;;;;;5032470;28;20511;-29
2022/05/24 09:27:16;;;;;;;7.10;6.07;;;;;;;;;;5032481;28;20057;-29
2022/05/24 09:29:58;;;;;;;7.05;6.30;;;;;;;;;;5045949;28;20067;-29
2022/05/24 09:32:30;;;;;;;6.82;6.22;;;;;;;;;;5051746;28;20487;-29
2022/05/24 09:35:11;;;;;;;6.70;5.82;;;;;;;;;;5048714;28;20090;-29
2022/05/24 09:37:38;;;;;;;5.95;5.40;;;;;;;;;;5052043;28;20040;-32
2022/05/24 09:40:07;;;;;;;5.88;5.28;;;;;;;;;;5049188;28;20498;-29
2022/05/24 09:42:37;;;;;;;7.05;6.15;;;;;;;;;;5032224;28;20045;-29
2022/05/24 09:45:09;;;;;;;10.00;6.10;;;;;;;;;;5031869;28;20072;-29
2022/05/24 09:47:38;;;;;;;8.13;5.28;;;;;;;;;;5037225;28;20037;-29
2022/05/24 09:50:23;;;;;;;8.48;5.55;;;;;;;;;;5052272;28;20139;-30
2022/05/24 09:53:09;;;;;;;6.35;5.45;;;;;;;;;;5052030;28;20036;-29
2022/05/24 09:55:55;;;;;;;5.43;4.93;;;;;;;;;;5052024;28;20402;-28
2022/05/24 09:58:22;;;;;;;5.50;4.85;;;;;;;;;;5051967;28;20040;-29
2022/05/24 10:00:53;;;;;;;6.22;5.32;;;;;;;;;;5051765;28;20331;-28
2022/05/24 10:03:24;;;;;;;5.88;5.40;;;;;;;;;;5051669;28;20105;-33
2022/05/24 10:05:58;;;;;;;6.03;5.30;;;;;;;;;;5051065;28;20044;-32
2022/05/24 10:08:24;;;;;;;5.50;5.00;;;;;;;;;;5050942;28;20113;-33
2022/05/24 10:10:56;;;;;;;6.13;5.13;;;;;;;;;;5051198;28;20041;-31
2022/05/24 10:13:25;;;;;;;6.13;5.50;;;;;;;;;;5050642;28;20037;-33
2022/05/24 10:15:54;;;;;;;5.70;5.18;;;;;;;;;;5050353;28;20110;-30
2022/05/24 10:18:33;;;;;;;5.95;4.72;;;;;;;;;;5051345;28;20051;-30
2022/05/24 10:21:01;;;;;;;2.97;2.67;;;;;;;;;;5051625;28;20444;-29
2022/05/24 10:23:31;;;;;;;2.40;2.20;;;;;;;;;;5051491;28;20045;-29
2022/05/24 10:26:03;;;;;;;2.72;1.77;;;;;;;;;;5051461;28;20096;-29
2022/05/24 10:28:51;;;;;;;2.22;1.90;;;;;;;;;;5050939;28;20087;-29
2022/05/24 10:31:17;;;;;;;4.40;2.65;;;;;;;;;;5033448;28;20396;-29
2022/05/24 10:39:30;;;;;;;2.03;1.70;;;;;;;;;;5051421;28;20048;-29
2022/05/24 10:42:07;;;;;;;1.85;1.30;;;;;;;;;;5051313;28;20045;-29
2022/05/24 10:44:45;;;;;;;2.03;1.33;;;;;;;;;;5054767;28;20045;-29
2022/05/24 10:47:21;;;;;;;2.67;1.15;;;;;;;;;;5055123;28;20095;-30
2022/05/24 10:49:49;;;;;;;1.75;1.50;;;;;;;;;;5054992;28;20049;-28
2022/05/24 10:52:24;;;;;;;2.88;1.67;;;;;;;;;;5055225;28;20494;-29
2022/05/24 10:54:59;;;;;;;2.25;1.50;;;;;;;;;;5055274;28;20040;-29
2022/05/24 10:57:29;;;;;;;3.08;1.45;;;;;;;;;;5055244;28;20383;-28
2022/05/24 11:00:01;;;;;;;1.98;1.88;;;;;;;;;;5054743;28;20041;-29
2022/05/24 11:02:40;;;;;;;3.00;2.40;;;;;;;;;;5054816;28;20323;-30
2022/05/24 11:05:24;;;;;;;3.65;2.42;;;;;;;;;;5055094;28;20037;-28
2022/05/24 11:07:52;;;;;;;2.60;2.40;;;;;;;;;;5054433;28;20060;-29
2022/05/24 11:10:18;;;;;;;2.78;2.58;;;;;;;;;;5049647;28;20034;-29
2022/05/24 11:12:47;;;;;;;2.55;2.35;;;;;;;;;;5043683;28;20445;-29
2022/05/24 11:15:18;;;;;;;1.75;1.60;;;;;;;;;;5043115;28;20116;-28
2022/05/24 11:17:46;;;;;;;1.70;1.05;;;;;;;;;;5048418;28;20033;-29
2022/05/24 11:20:13;;;;;;;1.75;1.20;;;;;;;;;;5040949;28;20046;-29
2022/05/24 11:22:49;;;;;;;2.55;1.08;;;;;;;;;;5054418;28;20033;-28
2022/05/24 11:25:25;;;;;;;1.90;1.60;;;;;;;;;;5054863;28;20529;-28
2022/05/24 11:27:51;;;;;;;1.65;1.30;;;;;;;;;;5037909;28;20124;-29
2022/05/24 11:30:19;;;;;;;2.95;1.30;;;;;;;;;;5055739;28;20037;-30
2022/05/24 11:32:51;;;;;;;1.95;1.75;;;;;;;;;;5037830;28;20041;-29
2022/05/24 11:35:20;;;;;;;2.28;1.73;;;;;;;;;;5037721;28;20036;-29
2022/05/24 11:37:48;;;;;;;2.28;2.15;;;;;;;;;;5055878;28;20150;-31
2022/05/24 11:40:33;;;;;;;2.80;2.50;;;;;;;;;;5021324;28;20041;-28
2022/05/24 11:43:10;;;;;;;3.28;2.53;;;;;;;;;;5033719;28;20053;-28
2022/05/24 11:45:48;;;;;;;2.35;2.15;;;;;;;;;;5017445;28;20091;-28
2022/05/24 11:48:15;;;;;;;4.43;2.92;;;;;;;;;;5016948;28;20045;-28
2022/05/24 11:50:43;;;;;;;4.15;2.67;;;;;;;;;;5020889;28;20138;-28
2022/05/24 11:53:11;;;;;;;4.50;2.70;;;;;;;;;;5051937;28;20077;-32
2022/05/24 11:55:42;;;;;;;4.07;2.85;;;;;;;;;;5025250;28;20068;-31
2022/05/24 11:58:22;;;;;;;3.28;2.95;;;;;;;;;;5037034;28;20559;-29
2022/05/24 12:01:03;;;;;;;3.33;3.00;;;;;;;;;;5036804;28;20045;-29
2022/05/24 12:09:25;;;;;;;4.57;3.30;;;;;;;;;;5023013;28;20048;-30
2022/05/24 12:12:10;;;;;;;2.72;2.53;;;;;;;;;;5020079;28;20040;-29
2022/05/24 12:14:39;;;;;;;2.90;2.60;;;;;;;;;;5036724;28;20538;-28
2022/05/24 12:17:06;;;;;;;3.72;3.15;;;;;;;;;;5020384;28;20041;-28
2022/05/24 12:19:40;;;;;;;3.92;3.63;;;;;;;;;;5036754;28;20040;-29
2022/05/24 12:22:07;;;;;;;3.10;2.83;;;;;;;;;;5054792;28;20048;-29
2022/05/24 12:24:37;;;;;;;2.70;2.50;;;;;;;;;;5036876;28;20041;-29
2022/05/24 12:27:09;;;;;;;4.47;2.80;;;;;;;;;;5054414;28;20390;-30
2022/05/24 12:29:36;;;;;;;3.80;2.58;;;;;;;;;;5020223;28;20429;-30
2022/05/24 12:32:06;;;;;;;2.88;2.67;;;;;;;;;;5036412;28;20073;-30
2022/05/24 12:34:32;;;;;;;2.55;2.10;;;;;;;;;;5052773;28;20537;-29
2022/05/24 12:37:01;;;;;;;3.63;2.40;;;;;;;;;;5052864;28;20108;-29
2022/05/24 12:39:27;;;;;;;2.47;2.28;;;;;;;;;;5052602;28;20040;-30
2022/05/24 12:41:58;;;;;;;4.28;2.47;;;;;;;;;;5052174;28;20041;-29
2022/05/24 12:44:32;;;;;;;4.20;2.08;;;;;;;;;;5051985;28;20053;-29
2022/05/24 12:47:07;;;;;;;2.88;2.67;;;;;;;;;;5049763;28;20128;-30
2022/05/24 12:49:34;;;;;;;2.85;2.58;;;;;;;;;;5051951;28;20108;-29
2022/05/24 12:52:03;;;;;;;2.67;2.10;;;;;;;;;;5052573;28;20033;-30
2022/05/24 12:54:29;;;;;;;4.82;2.08;;;;;;;;;;5052494;28;20037;-30
2022/05/24 12:57:00;;;;;;;2.50;1.90;;;;;;;;;;5052415;28;20048;-29
2022/05/24 12:59:31;;;;;;;2.50;2.15;;;;;;;;;;5051581;28;20158;-29
2022/05/24 13:01:57;;;;;;;4.00;2.00;;;;;;;;;;5051152;28;20063;-30
2022/05/24 13:04:27;;;;;;;2.38;1.98;;;;;;;;;;5051364;28;20041;-30
2022/05/24 13:06:54;;;;;;;2.13;2.03;;;;;;;;;;5050254;28;20049;-31
2022/05/24 13:09:28;;;;;;;1.50;1.27;;;;;;;;;;5051374;28;20128;-29
2022/05/24 13:12:03;;;;;;;1.17;1.08;;;;;;;;;;5051062;28;20402;-30
2022/05/24 13:14:35;;;;;;;2.40;1.40;;;;;;;;;;5051188;28;20462;-30
2022/05/24 13:17:01;;;;;;;2.88;1.45;;;;;;;;;;5051237;28;20116;-29
2022/05/24 13:19:27;;;;;;;2.10;1.40;;;;;;;;;;5050808;28;20041;-30
2022/05/24 13:21:54;;;;;;;2.40;1.67;;;;;;;;;;5050581;28;20076;-30
2022/05/24 13:24:20;;;;;;;1.75;1.50;;;;;;;;;;5050762;28;20044;-30
2022/05/24 13:27:00;;;;;;;2.70;1.42;;;;;;;;;;5050607;28;20143;-32
2022/05/24 13:29:29;;;;;;;1.33;1.23;;;;;;;;;;5050488;28;20056;-30
2022/05/24 13:35:02;;;;;;;2.35;1.15;;;;;;;;;;4950157;29;20043;-30
2022/05/24 13:37:46;;;;;;;1.83;1.10;;;;;;;;;;5030270;28;20123;-32
2022/05/24 13:40:13;;;;;;;1.77;1.30;;;;;;;;;;5050742;28;20040;-29
2022/05/24 13:42:51;;;;;;;2.50;1.30;;;;;;;;;;5050376;28;20052;-30
2022/05/24 13:45:19;;;;;;;1.83;1.50;;;;;;;;;;5048615;28;20076;-34
2022/05/24 13:47:53;;;;;;;2.40;2.15;;;;;;;;;;5043591;28;20487;-34
2022/05/24 13:50:20;;;;;;;4.57;2.90;;;;;;;;;;5050238;28;20045;-32
2022/05/24 13:52:55;;;;;;;3.97;3.40;;;;;;;;;;5047895;28;20048;-34
2022/05/24 13:55:24;;;;;;;5.43;3.25;;;;;;;;;;5037487;28;20033;-33
2022/05/24 13:57:57;;;;;;;4.20;2.70;;;;;;;;;;5050625;28;20037;-29
2022/05/24 14:00:25;;;;;;;3.90;2.63;;;;;;;;;;5012969;28;1097913;-29
2022/05/24 14:03:07;;;;;;;3.00;2.60;;;;;;;;;;5049797;28;20446;-33
2022/05/24 14:05:34;;;;;;;4.82;3.20;;;;;;;;;;5033999;28;20128;-29
2022/05/24 14:08:01;;;;;;;3.50;3.20;;;;;;;;;;5031776;28;20583;-30
2022/05/24 14:10:27;;;;;;;3.63;3.10;;;;;;;;;;5031906;28;20573;-29
2022/05/24 14:12:53;;;;;;;3.58;3.28;;;;;;;;;;5031188;28;20037;-30
2022/05/24 14:15:19;;;;;;;5.30;3.13;;;;;;;;;;5043995;28;20399;-30
2022/05/24 14:17:45;;;;;;;3.50;3.20;;;;;;;;;;5049994;28;20044;-30
2022/05/24 14:20:11;;;;;;;6.70;3.60;;;;;;;;;;5051217;28;20091;-29
2022/05/24 14:22:37;;;;;;;3.72;3.20;;;;;;;;;;5050863;28;20068;-30
2022/05/24 14:25:03;;;;;;;4.20;2.50;;;;;;;;;;5050812;28;20047;-31
2022/05/24 14:27:29;;;;;;;3.15;2.20;;;;;;;;;;5050631;28;20033;-30
2022/05/24 14:29:56;;;;;;;1.77;1.33;;;;;;;;;;5051106;28;20390;-29
2022/05/24 14:32:23;;;;;;;2.25;1.60;;;;;;;;;;5051552;28;20041;-30
2022/05/24 14:34:49;;;;;;;1.92;1.17;;;;;;;;;;5051253;28;20506;-29
2022/05/24 14:37:16;;;;;;;1.80;1.52;;;;;;;;;;5051213;28;20033;-30
2022/05/24 14:39:42;;;;;;;2.30;1.40;;;;;;;;;;5050817;28;20310;-31
2022/05/24 14:42:08;;;;;;;3.63;1.35;;;;;;;;;;5050584;28;20047;-30
2022/05/24 14:44:35;;;;;;;2.13;1.50;;;;;;;;;;5050840;28;20091;-30
2022/05/24 14:47:02;;;;;;;3.40;1.40;;;;;;;;;;5050517;28;20053;-29
2022/05/24 14:49:28;;;;;;;2.63;1.40;;;;;;;;;;5050484;28;20045;-29
2022/05/24 14:51:58;;;;;;;3.35;1.42;;;;;;;;;;5050776;28;20037;-29
2022/05/24 14:54:25;;;;;;;2.05;1.50;;;;;;;;;;5050863;28;20245;-29
2022/05/24 14:56:51;;;;;;;2.28;1.02;;;;;;;;;;5050699;28;20224;-29
2022/05/24 14:59:18;;;;;;;3.28;1.20;;;;;;;;;;5050516;28;20128;-30
2022/05/24 15:01:44;;;;;;;2.47;1.52;;;;;;;;;;5050474;28;20041;-32
2022/05/24 15:04:11;;;;;;;2.42;1.60;;;;;;;;;;5050343;28;20390;-32
2022/05/24 15:06:38;;;;;;;2.72;1.38;;;;;;;;;;5050233;28;20128;-31
2022/05/24 15:17:06;;;;;;;2.20;1.60;;;;;;;;;;5050198;28;20408;-32
2022/05/24 15:19:32;;;;;;;2.05;1.40;;;;;;;;;;5049496;28;20045;-33
2022/05/24 15:21:59;;;;;;;3.50;1.63;;;;;;;;;;5050007;28;20045;-32
2022/05/24 15:24:29;;;;;;;4.00;1.45;;;;;;;;;;5047101;28;20083;-33
2022/05/24 15:26:57;;;;;;;1.90;1.17;;;;;;;;;;5049924;28;20540;-30
2022/05/24 15:29:23;;;;;;;2.10;1.50;;;;;;;;;;5052032;28;20452;-29